Terminal Aerodrome Forecast
Issued by NWS Portland, OR

Home | Current Version | Previous Version | Text Only | Print | Product List | Glossary On
Versions: 1 2 3 4 5 6 7 8 9 10 11 12 13 14 15 16 17 18 19 20 21 22 23 24 25 26 27 28 29 30 31 32 33 34
000
FTUS46 KPQR 092327
TAFTTD
TAF
KTTD 092327Z 1000/1024 08013G22KT 3SM -FZRA SCT008 BKN015 OVC025
     FM100600 09012KT 3SM -RA BR SCT008 OVC015
     FM101200 10005KT 2SM -SHRA BR SCT004 OVC008
     FM101700 19005KT 4SM -SHRA BR SCT008 OVC025=

USA.gov is the U.S. government's official web portal to all federal, state and local government web resources and services.